• Join FlightAware (Why Join?)
  • Login
  • US Flag 
11:46AM EDT


 

Airport Tracker/Info


-or-


 

Live Flight TrackerFlight Track Log ✈ SWA3044 ✈ 27-Apr-2013 ✈ KDAL - KSTL

Flight Track Log - Related Links

Times and Time Zones

All times are in EDT time to prevent confusion due to time zone crossing. See the SWA3044 flight status page for this flight to view local times or setup timezone preferences in your user account.

Time Position Orientation Groundspeed Altitude Reporting Facility
EDT Latitude Longitude Course Direction KTS MPH feet Rate Location/Type
05:26PM 32.9000 -96.9000 25° Northeast 196 226 3,300  Level Dallas / Fort Worth TRACON
05:27PM 32.9333 -96.9500 308° West 217 250 7,500 2,760 Climbing Dallas / Fort Worth TRACON
05:29PM 33.0811 -96.9722 353° North 223 257 12,600 2,580 Climbing Fort Worth Center
05:30PM 33.1664 -96.9344 20° North 327 376 16,100 3,000 Climbing Fort Worth Center
05:31PM 33.4382 -96.5377 25° Northeast  Level FlightAware Approximate
05:31PM 33.2581 -96.8644 33° Northeast 364 419 18,600  Level Fort Worth Center
05:32PM 33.3661 -96.7767 34° Northeast 411 473 21,600 2,520 Climbing Fort Worth Center
05:33PM 33.4681 -96.6939 34° Northeast 431 496 23,700 2,160 Climbing Fort Worth Center
05:34PM 33.5719 -96.6083 34° Northeast 443 510 26,000 2,100 Climbing Fort Worth Center
05:35PM 33.6797 -96.5200 34° Northeast 456 525 27,900 1,800 Climbing Fort Worth Center
05:36PM 33.7897 -96.4311 34° Northeast 471 542 29,700 1,620 Climbing Fort Worth Center
05:37PM 33.9017 -96.3375 35° Northeast 481 554 31,200 1,680 Climbing Fort Worth Center
05:38PM 34.0156 -96.2433 34° Northeast 498 573 33,100 1,620 Climbing Fort Worth Center
05:39PM 34.1272 -96.1489 35° Northeast 493 567 34,500 1,380 Climbing Fort Worth Center
05:40PM 34.2411 -96.0569 34° Northeast 493 567 35,900 720 Climbing Fort Worth Center
05:41PM 34.3547 -95.9594 35° Northeast 488 562 36,000  Climbing Fort Worth Center
05:42PM 34.4683 -95.8619 35° Northeast 493 567 36,000 540 Level Fort Worth Center
05:43PM 34.5819 -95.7664 35° Northeast 488 562 37,100 1,380 Climbing Fort Worth Center
05:44PM 34.6850 -95.6811 34° Northeast 481 554 38,800 900 Climbing Fort Worth Center
05:45PM 34.7944 -95.5906 34° Northeast 469 540 39,000 60 Climbing Fort Worth Center
05:46PM 34.8933 -95.5100 34° Northeast 469 540 39,000  Level Fort Worth Center
05:47PM 35.0044 -95.4161 35° Northeast 469 540 39,000  Level Fort Worth Center
05:48PM 35.1136 -95.3222 35° Northeast 469 540 39,000  Level Fort Worth Center
05:49PM 35.2381 -95.2178 34° Northeast 469 540 39,000  Level Memphis Center
05:50PM 35.3439 -95.1247 36° Northeast 469 540 39,000  Level Memphis Center
05:51PM 35.4517 -95.0314 35° Northeast 469 540 39,000  Level Memphis Center
05:52PM 35.5594 -94.9378 35° Northeast 469 540 39,000  Level Memphis Center
05:53PM 35.6692 -94.8442 35° Northeast 469 540 39,000  Level Memphis Center
05:54PM 35.7769 -94.7478 36° Northeast 469 540 39,000  Level Memphis Center
05:55PM 35.8844 -94.6561 35° Northeast 469 540 39,000  Level Memphis Center
05:56PM 35.9919 -94.5617 35° Northeast 469 540 39,000  Level Memphis Center
05:57PM 36.0994 -94.4644 36° Northeast 469 540 39,000  Level Memphis Center
06:00PM 36.3364 -94.2531 36° Northeast 471 542 39,000  Level Kansas City Center
06:01PM 36.4442 -94.1581 35° Northeast 473 544 39,000  Level Kansas City Center
06:02PM 36.5708 -94.0447 36° Northeast 469 540 39,000  Level Kansas City Center
06:03PM 36.6767 -93.9511 35° Northeast 467 537 39,000  Level Kansas City Center
06:04PM 36.7828 -93.8556 36° Northeast 469 540 39,000  Level Kansas City Center
06:05PM 36.8881 -93.7600 36° Northeast 463 533 39,000  Level Kansas City Center
06:06PM 36.9919 -93.6639 36° Northeast 463 533 39,000  Level Kansas City Center
06:07PM 37.0972 -93.5692 36° Northeast 463 533 39,000  Level Kansas City Center
06:08PM 37.2022 -93.4747 36° Northeast 462 532 39,000  Level Kansas City Center
06:09PM 37.3083 -93.3783 36° Northeast 467 537 39,000  Level Kansas City Center
06:10PM 37.4100 -93.2761 39° Northeast 466 536 39,000  Level Kansas City Center
06:11PM 37.5031 -93.1619 44° Northeast 465 535 39,000  Level Kansas City Center
06:12PM 37.6175 -93.0300 42° Northeast 463 533 39,000 -60 Level Kansas City Center
06:13PM 37.7128 -92.9181 43° Northeast 465 535 38,900 -540 Descending Kansas City Center
06:14PM 37.8078 -92.8067 43° Northeast 464 534 37,900 -960 Descending Kansas City Center
06:15PM 37.8958 -92.7017 43° Northeast 466 536 37,000 -1,140 Descending Kansas City Center
06:16PM 37.9725 -92.5653 54° Northeast 478 550 35,600 -1,980 Descending Kansas City Center
06:17PM 38.0469 -92.4303 55° Northeast 474 545 33,000 -2,280 Descending Kansas City Center
06:18PM 38.1208 -92.2961 55° Northeast 466 536 31,000 -2,640 Descending Kansas City Center
06:19PM 38.2014 -92.1425 56° Northeast 452 520 27,600 -2,760 Descending Kansas City Center
06:20PM 38.2689 -92.0142 56° Northeast 439 505 25,400 -2,160 Descending Kansas City Center
06:21PM 38.3347 -91.8906 56° Northeast 424 488 23,200 -2,100 Descending Kansas City Center
06:22PM 38.3983 -91.7717 56° Northeast 409 471 21,200 -2,040 Descending Kansas City Center
06:23PM 38.4600 -91.6544 56° Northeast 402 463 19,100 -1,980 Descending Kansas City Center
06:24PM 38.5206 -91.5394 56° Northeast 396 456 17,200 -2,040 Descending Kansas City Center
06:25PM 38.5811 -91.4244 56° Northeast 392 451 15,000 -2,100 Descending Kansas City Center
06:26PM 38.6389 -91.3092 57° Northeast 389 448 12,900 -1,560 Descending Kansas City Center
06:27PM 38.6756 -91.1656 72° East 363 418 11,900 -1,320 Descending Kansas City Center
06:28PM 38.7139 -91.0583 65° Northeast 345 397 10,200 -1,440 Descending Kansas City Center
06:29PM 38.7578 -90.9667 58° Northeast 322 371 9,000 -1,020 Descending Kansas City Center
06:30PM 38.7678 -90.8775 82° East 277 319 8,200 -1,560 Descending Kansas City Center
06:31PM 38.7758 -90.7942 83° East 246 283 5,900 -2,160 Descending Kansas City Center
06:32PM 38.7819 -90.7131 84° East 234 269 3,800 -1,260 Descending Kansas City Center
06:33PM 38.8194 -90.6597 48° Northeast 217 250 3,300 -420 Descending Kansas City Center
06:34PM 38.8325 -90.6036 73° East 192 221 3,000 -240 Descending Kansas City Center
06:36PM 38.8297 -90.5339 93° East 176 203 2,900 -300 Descending Kansas City Center
06:37PM 38.8050 -90.4831 122° Southeast 173 199 2,400 -600 Descending Kansas City Center
06:38PM 38.7831 -90.4383 122° Southeast 161 185 1,700 -720 Descending Kansas City Center
06:39PM 38.7633 -90.3986 122° Southeast 144 166 1,000 -600 Descending Kansas City Center
06:40PM 38.7453 -90.3625 123° Southeast 139 160 500 -540 Descending Kansas City Center